createdAt,value
2022-11-12T00:01:14.762Z,101481.59
2022-11-12T00:03:45.396Z,101491.72
2022-11-12T00:06:14.190Z,101492.84
2022-11-12T00:08:42.226Z,101496.47
2022-11-12T00:11:10.476Z,101480.63
2022-11-12T00:13:38.993Z,101491.09
2022-11-12T00:16:07.740Z,101506.53
2022-11-12T00:18:36.853Z,101495.03
2022-11-12T00:21:06.428Z,101492.59
2022-11-12T00:23:34.389Z,101448.56
2022-11-12T00:26:02.842Z,101488.16
2022-11-12T00:28:37.546Z,101473.03
2022-11-12T00:31:13.340Z,101461.56
2022-11-12T00:33:43.376Z,101488.44
2022-11-12T00:36:13.095Z,101510.66
2022-11-12T00:38:41.094Z,101477.69
2022-11-12T00:41:09.308Z,101467.66
2022-11-12T00:43:37.282Z,101499.91
2022-11-12T00:46:05.684Z,101498.22
2022-11-12T00:48:34.177Z,101485.47
2022-11-12T00:51:03.678Z,101485.47
2022-11-12T00:53:33.499Z,101482.91
2022-11-12T00:56:02.673Z,101471.34
2022-11-12T00:58:32.695Z,101461.69
2022-11-12T01:01:07.832Z,101467.31
2022-11-12T01:03:36.326Z,101499.91
2022-11-12T01:06:05.201Z,101467.66
2022-11-12T01:08:34.714Z,101472.16
2022-11-12T01:11:10.509Z,101492.84
2022-11-12T01:13:43.953Z,101446.00
2022-11-12T01:16:15.977Z,101482.09
2022-11-12T01:18:45.077Z,101489.41
2022-11-12T01:21:14.336Z,101507.09
2022-11-12T01:23:44.048Z,101500.91
2022-11-12T01:26:14.930Z,101480.56
2022-11-12T01:28:44.087Z,101511.78
2022-11-12T01:31:14.476Z,101512.59
2022-11-12T01:33:42.960Z,101515.28
2022-11-12T01:36:12.147Z,101505.53
2022-11-12T01:38:42.500Z,101501.84
2022-11-12T01:41:15.872Z,101508.97
2022-11-12T01:43:44.884Z,101507.22
2022-11-12T01:46:20.774Z,101510.03
2022-11-12T01:48:53.456Z,101507.22
2022-11-12T01:51:22.926Z,101519.72
2022-11-12T01:53:54.388Z,101517.97
2022-11-12T01:56:25.435Z,101524.22
2022-11-12T01:58:58.826Z,101521.66
2022-11-12T02:01:27.503Z,101528.72
2022-11-12T02:03:56.626Z,101527.78
2022-11-12T02:06:28.288Z,101494.13
2022-11-12T02:08:57.768Z,101523.34
2022-11-12T02:11:27.239Z,101527.28
2022-11-12T02:14:01.558Z,101536.78
2022-11-12T02:16:33.630Z,101534.09
2022-11-12T02:19:02.214Z,101523.34
2022-11-12T02:21:32.238Z,101522.53
2022-11-12T02:24:02.637Z,101523.34
2022-11-12T02:26:34.991Z,101529.59
2022-11-12T02:29:04.057Z,101523.34
2022-11-12T02:31:32.267Z,101523.34
2022-11-12T02:34:00.884Z,101523.34
2022-11-12T02:36:29.698Z,101507.03
2022-11-12T02:39:00.225Z,101532.28
2022-11-12T02:41:28.782Z,101532.66
2022-11-12T02:43:57.223Z,101539.47
2022-11-12T02:46:25.765Z,101534.09
2022-11-12T02:48:53.780Z,101528.78
2022-11-12T02:51:23.052Z,101550.22
2022-11-12T02:53:51.403Z,101552.91
2022-11-12T02:56:20.885Z,101555.59
2022-11-12T02:58:48.885Z,101563.66
2022-11-12T03:01:17.297Z,101536.59
2022-11-12T03:03:45.300Z,101550.22
2022-11-12T03:06:13.417Z,101549.28
2022-11-12T03:08:41.601Z,101545.09
2022-11-12T03:11:11.878Z,101556.34
2022-11-12T03:13:41.647Z,101551.94
2022-11-12T03:16:10.162Z,101554.78
2022-11-12T03:18:38.898Z,101561.84
2022-11-12T03:21:07.631Z,101564.66
2022-11-12T03:23:35.917Z,101552.91
2022-11-12T03:26:05.639Z,101570.03
2022-11-12T03:28:34.477Z,101570.41
2022-11-12T03:31:04.163Z,101572.22
2022-11-12T03:33:32.406Z,101576.41
2022-11-12T03:36:00.371Z,101580.78
2022-11-12T03:38:28.998Z,101586.16
2022-11-12T03:40:57.660Z,101581.50
2022-11-12T03:43:25.852Z,101577.97
2022-11-12T03:45:53.856Z,101584.19
2022-11-12T03:48:23.743Z,101578.81
2022-11-12T03:50:52.480Z,101578.09
2022-11-12T03:53:20.759Z,101577.09
2022-11-12T03:55:48.915Z,101593.22
2022-11-12T03:58:17.216Z,101587.84
2022-11-12T04:00:45.790Z,101593.22
2022-11-12T04:03:13.749Z,101573.69
2022-11-12T04:06:00.834Z,101561.03
2022-11-12T04:08:37.598Z,101597.75
2022-11-12T04:11:07.898Z,101607.66
2022-11-12T04:13:38.489Z,101607.66
2022-11-12T04:16:26.448Z,101595.69
2022-11-12T04:19:13.818Z,101536.16
2022-11-12T04:21:56.013Z,101613.28
2022-11-12T04:24:44.912Z,101616.94
2022-11-12T04:27:16.098Z,101620.59
2022-11-12T04:30:02.478Z,101626.69
2022-11-12T04:32:31.287Z,101638.44
2022-11-12T04:34:59.958Z,101638.44
2022-11-12T04:37:44.516Z,101622.81
2022-11-12T04:40:31.450Z,101652.59
2022-11-12T04:43:16.925Z,101652.72
2022-11-12T04:45:46.523Z,101653.44
2022-11-12T04:48:14.836Z,101652.59
2022-11-12T04:50:44.108Z,101659.69
2022-11-12T04:53:14.419Z,101652.84
2022-11-12T04:55:42.714Z,101652.59
2022-11-12T04:58:11.075Z,101658.69
2022-11-12T05:00:39.464Z,101667.75
2022-11-12T05:03:07.610Z,101659.06
2022-11-12T05:05:35.949Z,101666.75
2022-11-12T05:08:04.797Z,101666.75
2022-11-12T05:10:34.218Z,101662.13
2022-11-12T05:13:02.382Z,101666.75
2022-11-12T05:15:30.584Z,101633.44
2022-11-12T05:17:59.111Z,101668.47
2022-11-12T05:20:28.207Z,101659.94
2022-11-12T05:23:08.720Z,101654.56
2022-11-12T05:25:38.285Z,101680.94
2022-11-12T05:28:07.196Z,101690.09
2022-11-12T05:30:35.845Z,101702.44
2022-11-12T05:33:03.961Z,101693.63
2022-11-12T05:35:32.130Z,101704.38
2022-11-12T05:38:00.448Z,101709.75
2022-11-12T05:40:28.798Z,101724.19
2022-11-12T05:42:58.431Z,101714.50
2022-11-12T05:45:26.575Z,101720.50
2022-11-12T05:47:54.595Z,101711.13
2022-11-12T05:50:22.558Z,101718.56
2022-11-12T05:52:50.689Z,101711.22
2022-11-12T05:55:18.703Z,101714.63
2022-11-12T05:57:47.759Z,101711.22
2022-11-12T06:00:18.556Z,101715.28
2022-11-12T06:02:46.909Z,101728.59
2022-11-12T06:05:15.244Z,101732.00
2022-11-12T06:07:43.265Z,101738.13
2022-11-12T06:10:13.727Z,101733.47
2022-11-12T06:12:46.021Z,101727.50
2022-11-12T06:15:14.206Z,101746.91
2022-11-12T06:17:43.873Z,101736.03
2022-11-12T06:20:12.652Z,101749.09
2022-11-12T06:22:40.598Z,101747.16
2022-11-12T06:25:09.045Z,101755.97
2022-11-12T06:27:37.167Z,101758.66
2022-11-12T06:30:05.871Z,101761.59
2022-11-12T06:32:33.810Z,101759.59
2022-11-12T06:35:03.309Z,101763.03
2022-11-12T06:37:31.230Z,101770.59
2022-11-12T06:39:59.138Z,101787.47
2022-11-12T06:42:27.098Z,101795.53
2022-11-12T06:44:55.003Z,101800.91
2022-11-12T06:47:23.023Z,101800.06
2022-11-12T06:49:50.971Z,101797.50
2022-11-12T06:52:20.285Z,101787.72
2022-11-12T06:54:48.229Z,101789.41
2022-11-12T06:57:16.347Z,101784.03
2022-11-12T06:59:44.518Z,101794.91
2022-11-12T07:02:13.323Z,101807.28
2022-11-12T07:04:41.231Z,101808.00
2022-11-12T07:07:10.822Z,101823.41
2022-11-12T07:09:40.524Z,101842.22
2022-11-12T07:12:08.895Z,101836.59
2022-11-12T07:14:36.816Z,101850.19
2022-11-12T07:17:04.879Z,101843.19
2022-11-12T07:19:32.832Z,101854.69
2022-11-12T07:22:00.821Z,101849.78
2022-11-12T07:24:28.766Z,101870.81
2022-11-12T07:26:58.094Z,101868.88
2022-11-12T07:29:46.160Z,101877.88
2022-11-12T07:32:13.968Z,101888.66
2022-11-12T07:34:41.883Z,101886.94
2022-11-12T07:37:09.847Z,101899.41
2022-11-12T07:39:37.827Z,101910.16
2022-11-12T07:42:07.166Z,101912.13
2022-11-12T07:44:35.296Z,101919.44
2022-11-12T07:47:03.283Z,101917.75
2022-11-12T07:49:31.209Z,101923.13
2022-11-12T07:51:59.160Z,101905.25
2022-11-12T07:54:27.059Z,101914.31
2022-11-12T07:56:55.013Z,101901.84
2022-11-12T07:59:24.318Z,101899.88
2022-11-12T08:01:52.389Z,101899.88
2022-11-12T08:04:20.408Z,101914.31
2022-11-12T08:06:49.359Z,101935.81
2022-11-12T08:09:17.459Z,101941.19
2022-11-12T08:11:45.416Z,101949.13
2022-11-12T08:14:13.337Z,101950.97
2022-11-12T08:16:42.635Z,101947.44
2022-11-12T08:19:10.573Z,101944.63
2022-11-12T08:21:38.569Z,101939.25
2022-11-12T08:24:07.082Z,101946.56
2022-11-12T08:26:35.018Z,101966.38
2022-11-12T08:29:08.040Z,101974.31
2022-11-12T08:31:36.757Z,101977.72
2022-11-12T08:34:12.429Z,101991.28
2022-11-12T08:36:41.287Z,101989.34
2022-11-12T08:39:09.674Z,101983.97
2022-11-12T08:41:37.886Z,101985.66
2022-11-12T08:44:08.744Z,102000.09
2022-11-12T08:46:36.979Z,101998.41
2022-11-12T08:49:06.341Z,102007.28
2022-11-12T08:51:34.266Z,102001.19
2022-11-12T08:54:02.243Z,101993.25
2022-11-12T08:56:30.175Z,101987.75
2022-11-12T08:58:58.161Z,101993.25
2022-11-12T09:01:26.179Z,102007.63
2022-11-12T09:03:54.432Z,102016.69
2022-11-12T09:06:23.882Z,102022.81
2022-11-12T09:08:51.854Z,102028.91
2022-11-12T09:11:19.772Z,102012.78
2022-11-12T09:13:47.798Z,102016.47
2022-11-12T09:16:15.730Z,102019.16
2022-11-12T09:18:43.660Z,102017.44
2022-11-12T09:21:13.198Z,102015.59
2022-11-12T09:23:44.149Z,102016.69
2022-11-12T09:26:12.089Z,102019.25
2022-11-12T09:28:40.025Z,102021.09
2022-11-12T09:31:08.743Z,102012.78
2022-11-12T09:33:36.733Z,102011.09
2022-11-12T09:36:06.318Z,101954.94
2022-11-12T09:38:34.404Z,102029.16
2022-11-12T09:41:25.014Z,102026.22
2022-11-12T09:43:55.188Z,102045.16
2022-11-12T09:46:33.249Z,102056.78
2022-11-12T09:49:07.861Z,102068.53
2022-11-12T09:51:40.676Z,102064.97
2022-11-12T09:54:20.057Z,102075.84
2022-11-12T09:56:50.407Z,102081.31
2022-11-12T09:59:19.070Z,102087.56
2022-11-12T10:02:01.576Z,102102.72
2022-11-12T10:04:48.741Z,102108.09
2022-11-12T10:07:26.117Z,102099.31
2022-11-12T10:10:03.716Z,102104.41
2022-11-12T10:12:46.400Z,102109.91
2022-11-12T10:15:56.585Z,102124.22
2022-11-12T10:18:36.808Z,102122.50
2022-11-12T10:21:14.810Z,102144.03
2022-11-12T10:23:46.266Z,102143.03
2022-11-12T10:26:16.908Z,102125.31
2022-11-12T10:28:49.757Z,102129.59
2022-11-12T10:31:19.289Z,102123.34
2022-11-12T10:33:47.723Z,102136.69
2022-11-12T10:36:23.361Z,102145.72
2022-11-12T10:38:54.047Z,102152.81
2022-11-12T10:41:26.495Z,102158.19
2022-11-12T10:43:58.589Z,102154.53
2022-11-12T10:46:28.856Z,102152.69
2022-11-12T10:49:01.657Z,102152.81
2022-11-12T10:51:33.331Z,102163.56
2022-11-12T10:54:01.361Z,102159.91
2022-11-12T10:56:31.441Z,102162.50
2022-11-12T10:59:20.558Z,102154.53
2022-11-12T11:01:57.405Z,102151.97
2022-11-12T11:04:31.762Z,102151.31
2022-11-12T11:07:05.618Z,102166.50
2022-11-12T11:09:36.005Z,102161.34
2022-11-12T11:12:04.469Z,102154.13
2022-11-12T11:14:38.380Z,102167.47
2022-11-12T11:17:09.417Z,102169.19
2022-11-12T11:19:39.703Z,102157.56
2022-11-12T11:22:30.582Z,102159.28
2022-11-12T11:25:13.355Z,102153.91
2022-11-12T11:27:46.134Z,102156.47
2022-11-12T11:30:19.170Z,102153.06
2022-11-12T11:33:03.151Z,102155.88
2022-11-12T11:35:58.552Z,102161.13
2022-11-12T11:38:36.128Z,102170.91
2022-11-12T11:41:18.242Z,102174.56
2022-11-12T11:43:57.682Z,102174.56
2022-11-12T11:46:44.562Z,102182.00
2022-11-12T11:49:48.378Z,102183.59
2022-11-12T11:52:36.225Z,102188.72
2022-11-12T11:55:19.873Z,102201.44
2022-11-12T11:58:00.062Z,102196.91
2022-11-12T12:00:36.440Z,102196.06
2022-11-12T12:03:21.745Z,102201.44
2022-11-12T12:06:15.854Z,102201.44
2022-11-12T12:09:00.718Z,102198.00
2022-11-12T12:11:35.812Z,102201.44
2022-11-12T12:14:17.381Z,102196.06
2022-11-12T12:16:56.038Z,102206.84
2022-11-12T12:19:43.137Z,102213.91
2022-11-12T12:22:15.658Z,102217.59
2022-11-12T12:24:51.102Z,102228.34
2022-11-12T12:27:23.893Z,102219.28
2022-11-12T12:29:55.793Z,102223.69
2022-11-12T12:32:29.705Z,102233.47
2022-11-12T12:35:05.945Z,102228.09
2022-11-12T12:37:38.741Z,102214.75
2022-11-12T12:40:18.699Z,102223.69
2022-11-12T12:42:52.216Z,102226.38
2022-11-12T12:45:35.949Z,102231.75
2022-11-12T12:48:07.104Z,102228.09
2022-11-12T12:50:39.668Z,102200.91
2022-11-12T12:53:19.114Z,102228.56
2022-11-12T12:55:48.892Z,102230.25
2022-11-12T12:58:28.041Z,102247.38
2022-11-12T13:01:02.158Z,102244.69
2022-11-12T13:03:58.791Z,102248.09
2022-11-12T13:06:32.422Z,102245.41
2022-11-12T13:09:06.934Z,102248.09
2022-11-12T13:12:10.704Z,102256.28
2022-11-12T13:15:21.151Z,102265.09
2022-11-12T13:17:53.044Z,102257.16
2022-11-12T13:20:39.747Z,102248.31
2022-11-12T13:23:53.969Z,102256.28
2022-11-12T13:26:45.708Z,102250.91
2022-11-12T13:29:43.911Z,102248.31
2022-11-12T13:32:32.276Z,102250.06
2022-11-12T13:35:31.229Z,102252.94
2022-11-12T13:38:02.239Z,102253.03
2022-11-12T13:40:51.900Z,102264.44
2022-11-12T13:43:34.689Z,102270.00
2022-11-12T13:46:21.504Z,102271.00
2022-11-12T13:48:56.118Z,102273.69
2022-11-12T13:51:30.933Z,102275.38
2022-11-12T13:53:59.240Z,102271.56
2022-11-12T13:56:30.518Z,102261.94
2022-11-12T13:59:10.278Z,102274.97
2022-11-12T14:01:38.327Z,102272.41
2022-11-12T14:04:08.419Z,102274.16
2022-11-12T14:06:39.151Z,102273.28
2022-11-12T14:09:24.356Z,102269.81
2022-11-12T14:12:16.164Z,102278.66
2022-11-12T14:15:01.369Z,102269.81
2022-11-12T14:17:38.715Z,102270.81
2022-11-12T14:20:31.368Z,102272.50
2022-11-12T14:23:12.391Z,102276.94
2022-11-12T14:25:48.950Z,102277.56
2022-11-12T14:28:27.969Z,102276.72
2022-11-12T14:30:56.670Z,102276.94
2022-11-12T14:33:26.924Z,102272.28
2022-11-12T14:35:55.888Z,102275.19
2022-11-12T14:38:29.389Z,102276.84
2022-11-12T14:41:02.653Z,102281.22
2022-11-12T14:43:39.109Z,102282.94
2022-11-12T14:46:09.028Z,102264.63
2022-11-12T14:48:47.145Z,102282.94
2022-11-12T14:51:16.072Z,102273.06
2022-11-12T14:53:48.703Z,102273.06
2022-11-12T14:56:25.046Z,102274.97
2022-11-12T14:58:55.677Z,102276.72
2022-11-12T15:04:21.760Z,102272.19
2022-11-12T15:06:54.566Z,102278.44
2022-11-12T15:09:34.708Z,102271.34
2022-11-12T15:12:05.188Z,102271.34
2022-11-12T15:14:35.546Z,102269.59
2022-11-12T15:17:05.646Z,102268.66
2022-11-12T15:19:33.946Z,102267.69
2022-11-12T15:22:06.717Z,102269.38
2022-11-12T15:24:36.291Z,102268.41
2022-11-12T15:27:35.963Z,102269.38
2022-11-12T15:30:18.038Z,102264.00
2022-11-12T15:32:46.440Z,102270.25
2022-11-12T15:35:39.394Z,102269.38
2022-11-12T15:38:12.688Z,102267.69
2022-11-12T15:40:46.193Z,102267.69
2022-11-12T15:43:17.461Z,102261.44
2022-11-12T15:45:49.183Z,102265.97
2022-11-12T15:48:17.117Z,102265.97
2022-11-12T15:50:45.798Z,102269.38
2022-11-12T15:53:13.941Z,102264.00
2022-11-12T15:55:43.341Z,102269.38
2022-11-12T15:58:16.793Z,102271.09
2022-11-12T16:00:46.313Z,102266.59
2022-11-12T16:03:16.395Z,102267.47
2022-11-12T16:05:44.738Z,102271.09
2022-11-12T16:08:12.890Z,102273.78
2022-11-12T16:10:42.336Z,102276.47
2022-11-12T16:13:16.336Z,102280.13
2022-11-12T16:15:44.451Z,102271.34
2022-11-12T16:18:13.808Z,102277.56
2022-11-12T16:20:41.721Z,102279.28
2022-11-12T16:23:09.832Z,102282.72
2022-11-12T16:25:39.549Z,102285.50
2022-11-12T16:28:14.812Z,102292.59
2022-11-12T16:30:42.895Z,102294.34
2022-11-12T16:33:13.971Z,102285.28
2022-11-12T16:35:42.387Z,102259.69
2022-11-12T16:38:15.493Z,102295.28
2022-11-12T16:40:44.551Z,102297.88
2022-11-12T16:43:12.699Z,102299.72
2022-11-12T16:45:43.456Z,102299.72
2022-11-12T16:48:16.846Z,102301.44
2022-11-12T16:50:44.901Z,102303.34
2022-11-12T16:53:12.836Z,102299.72
2022-11-12T16:55:40.807Z,102296.06
2022-11-12T16:58:08.784Z,102299.50
2022-11-12T17:00:36.712Z,102297.53
2022-11-12T17:03:04.916Z,102293.91
2022-11-12T17:05:34.242Z,102291.94
2022-11-12T17:08:02.205Z,102293.78
2022-11-12T17:10:30.197Z,102294.63
2022-11-12T17:12:58.170Z,102297.31
2022-11-12T17:15:26.116Z,102296.47
2022-11-12T17:17:54.882Z,102297.53
2022-11-12T17:20:22.811Z,102306.38
2022-11-12T17:22:52.166Z,102309.38
2022-11-12T17:25:20.103Z,102308.50
2022-11-12T17:27:48.045Z,102304.13
2022-11-12T17:30:15.995Z,102298.84
2022-11-12T17:32:43.956Z,102306.81
2022-11-12T17:35:11.880Z,102306.81
2022-11-12T17:37:39.813Z,102313.88
2022-11-12T17:40:10.571Z,102321.00
2022-11-12T17:42:38.593Z,102321.00
2022-11-12T17:45:07.657Z,102321.22
2022-11-12T17:47:40.174Z,102314.34
2022-11-12T17:50:09.936Z,102325.72
2022-11-12T17:52:37.872Z,102319.38
2022-11-12T17:55:06.565Z,102319.38
2022-11-12T17:57:35.886Z,102315.84
2022-11-12T18:00:04.345Z,102322.94
2022-11-12T18:02:32.250Z,102317.56
2022-11-12T18:05:00.292Z,102322.94
2022-11-12T18:07:28.233Z,102327.44
2022-11-12T18:09:56.179Z,102321.22
2022-11-12T18:12:24.411Z,102330.03
2022-11-12T18:14:53.702Z,102333.69
2022-11-12T18:17:21.722Z,102333.69
2022-11-12T18:19:49.668Z,102326.59
2022-11-12T18:22:19.513Z,102334.66
2022-11-12T18:24:48.928Z,102330.25
2022-11-12T18:27:16.891Z,102329.41
2022-11-12T18:29:45.720Z,102324.88
2022-11-12T18:32:15.407Z,102327.56
2022-11-12T18:34:45.178Z,102331.97
2022-11-12T18:37:13.298Z,102324.88
2022-11-12T18:39:41.260Z,102324.97
2022-11-12T18:42:09.171Z,102326.81
2022-11-12T18:44:37.369Z,102331.13
2022-11-12T18:47:05.479Z,102336.09
2022-11-12T18:49:35.158Z,102331.97
2022-11-12T18:52:03.116Z,102331.97
2022-11-12T18:54:31.637Z,102330.25
2022-11-12T18:56:59.587Z,102335.63
2022-11-12T18:59:30.754Z,102325.13
2022-11-12T19:01:58.899Z,102330.25
2022-11-12T19:04:26.988Z,102326.59
2022-11-12T19:06:56.386Z,102331.22
2022-11-12T19:09:24.450Z,102341.88
2022-11-12T19:11:52.471Z,102333.91
2022-11-12T19:14:20.481Z,102334.88
2022-11-12T19:16:48.466Z,102334.78
2022-11-12T19:19:17.755Z,102335.63
2022-11-12T19:21:46.655Z,102337.34
2022-11-12T19:24:16.058Z,102334.78
2022-11-12T19:26:44.036Z,102336.59
2022-11-12T19:29:11.987Z,102336.69
2022-11-12T19:31:40.951Z,102337.34
2022-11-12T19:34:09.095Z,102335.63
2022-11-12T19:36:37.034Z,102334.66
2022-11-12T19:39:05.314Z,102332.81
2022-11-12T19:41:34.639Z,102338.09
2022-11-12T19:44:02.651Z,102340.78
2022-11-12T19:46:31.851Z,102334.66
2022-11-12T19:48:59.930Z,102333.69
2022-11-12T19:51:28.485Z,102344.66
2022-11-12T19:53:56.439Z,102354.31
2022-11-12T19:56:24.407Z,102355.19
2022-11-12T19:58:55.154Z,102349.06
2022-11-12T20:01:23.211Z,102285.28
2022-11-12T20:03:51.364Z,102350.91
2022-11-12T20:06:21.264Z,102351.75
2022-11-12T20:08:49.220Z,102353.59
2022-11-12T20:11:18.934Z,102354.69
2022-11-12T20:13:47.281Z,102350.47
2022-11-12T20:16:23.874Z,102366.16
2022-11-12T20:18:54.694Z,102326.38
2022-11-12T20:21:22.731Z,102360.16
2022-11-12T20:23:50.692Z,102367.03
2022-11-12T20:26:18.663Z,102378.63
2022-11-12T20:28:46.609Z,102367.16
2022-11-12T20:31:20.060Z,102375.22
2022-11-12T20:33:48.696Z,102369.84
2022-11-12T20:36:19.514Z,102375.22
2022-11-12T20:38:50.037Z,102364.88
2022-11-12T20:41:20.605Z,102380.47
2022-11-12T20:43:48.967Z,102382.28
2022-11-12T20:46:18.266Z,102380.59
2022-11-12T20:48:46.789Z,102375.22
2022-11-12T20:51:25.335Z,102380.59
2022-11-12T20:53:59.429Z,102354.13
2022-11-12T20:56:30.399Z,102367.16
2022-11-12T20:58:58.982Z,102366.16
2022-11-12T21:01:30.137Z,102376.19
2022-11-12T21:03:58.929Z,102373.50
2022-11-12T21:06:28.952Z,102373.50
2022-11-12T21:08:59.798Z,102378.88
2022-11-12T21:11:27.802Z,102371.53
2022-11-12T21:13:55.784Z,102370.56
2022-11-12T21:16:23.786Z,102369.63
2022-11-12T21:18:53.181Z,102371.53
2022-11-12T21:21:21.462Z,102369.84
2022-11-12T21:23:51.036Z,102375.00
2022-11-12T21:26:20.902Z,102377.78
2022-11-12T21:28:51.053Z,102371.53
2022-11-12T21:31:21.055Z,102374.22
2022-11-12T21:33:52.502Z,102375.22
2022-11-12T21:36:21.995Z,102370.81
2022-11-12T21:38:50.278Z,102375.22
2022-11-12T21:41:20.111Z,102378.13
2022-11-12T21:43:49.361Z,102381.78
2022-11-12T21:46:19.874Z,102384.47
2022-11-12T21:48:53.570Z,102389.84
2022-11-12T21:51:25.918Z,102379.94
2022-11-12T21:53:55.534Z,102377.53
2022-11-12T21:56:23.891Z,102387.88
2022-11-12T21:58:56.119Z,102382.72
2022-11-12T22:01:26.157Z,102373.72
2022-11-12T22:03:55.715Z,102348.09
2022-11-12T22:06:29.981Z,102378.34
2022-11-12T22:08:59.145Z,102382.72
2022-11-12T22:11:28.267Z,102387.88
2022-11-12T22:13:56.232Z,102379.09
2022-11-12T22:16:25.944Z,102375.44
2022-11-12T22:18:55.803Z,102386.19
2022-11-12T22:21:26.798Z,102383.69
2022-11-12T22:23:55.927Z,102385.41
2022-11-12T22:26:26.072Z,102384.47
2022-11-12T22:28:54.564Z,102378.22
2022-11-12T22:31:25.025Z,102373.72
2022-11-12T22:33:53.951Z,102375.44
2022-11-12T22:36:24.577Z,102375.44
2022-11-12T22:38:54.728Z,102373.50
2022-11-12T22:41:25.567Z,102360.16
2022-11-12T22:43:55.104Z,102362.75
2022-11-12T22:46:24.860Z,102353.06
2022-11-12T22:48:53.331Z,102361.00
2022-11-12T22:51:22.448Z,102361.00
2022-11-12T22:53:56.179Z,102364.66
2022-11-12T22:56:25.151Z,102363.81
2022-11-12T22:58:53.335Z,102364.66
2022-11-12T23:01:23.038Z,102359.31
2022-11-12T23:03:51.650Z,102361.00
2022-11-12T23:06:20.341Z,102366.38
2022-11-12T23:08:48.645Z,102362.75
2022-11-12T23:11:19.889Z,102358.31
2022-11-12T23:13:48.380Z,102359.09
2022-11-12T23:16:18.117Z,102345.09
2022-11-12T23:18:46.958Z,102360.78
2022-11-12T23:21:16.913Z,102353.50
2022-11-12T23:23:44.978Z,102355.41
2022-11-12T23:26:15.436Z,102348.31
2022-11-12T23:28:44.979Z,102348.31
2022-11-12T23:31:15.837Z,102353.69
2022-11-12T23:33:46.118Z,102346.63
2022-11-12T23:36:14.223Z,102348.31
2022-11-12T23:38:42.910Z,102350.03
2022-11-12T23:41:12.539Z,102350.91
2022-11-12T23:43:40.488Z,102355.41
2022-11-12T23:46:10.192Z,102345.41
2022-11-12T23:48:38.227Z,102346.38
2022-11-12T23:51:08.386Z,102344.88
2022-11-12T23:53:37.279Z,102346.38
2022-11-12T23:56:06.884Z,102349.06
2022-11-12T23:58:34.880Z,102350.03
